Logan - 24 Hour Table
Date & TimeSolar
Radiation
(W/m²)
Wind
Speed
(mph)
Wind
Direction
(degrees)
Air
Temperature
(°F)
Relative
Humidity
(%)
Precipitation
(inches)
Barometric
Pressure
(inHg)
2020/01/25 08:00 2 1.2 173 31.4 99 0.00 30.14
2020/01/25 07:00 0 1.1 285 30.3 99 0.00 30.16
2020/01/25 06:00 0 0.4 115 30.8 99 0.00 30.14
2020/01/25 05:00 0 0.4 268 30.6 99 0.00 30.14
2020/01/25 04:00 0 0.5 311 29.8 99 0.00 30.13
2020/01/25 03:00 0 1.0 40 31.5 98 0.00 30.12
2020/01/25 02:00 0 0.7 40 30.9 99 0.00 30.12
2020/01/25 01:00 0 1.2 40 31.0 98 0.00 30.12
2020/01/25 00:00 0 1.2 273 31.6 98 0.00 30.12
2020/01/24 23:00 0 2.9 205 33.2 97 0.00 30.11
2020/01/24 22:00 0 2.6 113 34.2 93 0.00 30.10
2020/01/24 21:00 0 1.3 348 33.1 97 0.00 30.12
2020/01/24 20:00 0 0.7 126 33.2 97 0.00 30.09
2020/01/24 19:00 0 0.6 91 33.1 97 0.00 30.09
2020/01/24 18:00 4 0.8 16 33.2 97 0.00 30.09
2020/01/24 17:00 31 2.2 21 33.2 97 0.00 30.08
2020/01/24 16:00 101 4.1 4 33.7 96 0.00 30.08
2020/01/24 15:00 103 1.8 20 34.0 94 0.00 30.06
2020/01/24 14:00 208 2.5 0 34.2 93 0.00 30.06
2020/01/24 13:00 199 1.6 7 32.1 96 0.00 30.08
2020/01/24 12:00 180 1.7 299 31.2 99 0.00 30.09
2020/01/24 11:00 141 1.4 188 29.6 99 0.00 30.10
2020/01/24 10:00 84 0.7 81 28.2 99 0.00 30.11
2020/01/24 09:00 26 1.5 301 26.9 99 0.00 30.11